Time;durP1;ratioP1;P1;durP2;ratioP2;P2;SDS_P1;SDS_P2;PMS_P1;PMS_P2;Temp;Humidity;BMP_temperature;BMP_pressure;BME280_temperature;BME280_humidity;BME280_pressure;Samples;Min_cycle;Max_cycle;Signal;HPM_P1;HPM_P2
2023/04/10 06:07:32;;;;;;;13.33;10.07;;;13.30;99.90;;;;;;4587792;19;19995;-30
2023/04/10 06:09:03;;;;;;;13.07;8.27;;;13.40;99.90;;;;;;4590766;19;20024;-30
2023/04/10 06:10:35;;;;;;;12.52;8.20;;;13.40;99.90;;;;;;4592524;19;20011;-30
2023/04/10 06:12:07;;;;;;;10.23;7.60;;;13.40;99.90;;;;;;4592091;19;20002;-30
2023/04/10 06:13:39;;;;;;;13.85;8.57;;;13.50;99.90;;;;;;4591793;19;20022;-31
2023/04/10 06:15:10;;;;;;;11.55;8.00;;;13.50;99.90;;;;;;4590338;19;20357;-31
2023/04/10 06:16:42;;;;;;;12.10;7.88;;;13.50;99.90;;;;;;4590630;19;20018;-30
2023/04/10 06:18:13;;;;;;;15.70;8.70;;;13.50;99.90;;;;;;4593792;19;20019;-31
2023/04/10 06:19:45;;;;;;;13.82;8.73;;;13.50;99.90;;;;;;4593791;19;20014;-30
2023/04/10 06:21:16;;;;;;;11.73;8.95;;;13.50;99.90;;;;;;4593546;19;20024;-30
2023/04/10 06:22:50;;;;;;;12.67;8.17;;;13.50;99.90;;;;;;4592537;19;20038;-31
2023/04/10 06:24:21;;;;;;;12.65;8.95;;;13.60;99.90;;;;;;4591770;19;20469;-31
2023/04/10 06:25:55;;;;;;;13.73;9.23;;;13.60;99.90;;;;;;4590444;19;20370;-31
2023/04/10 06:27:26;;;;;;;;;;;13.60;99.90;;;;;;4592198;19;20015;-30
2023/04/10 06:28:57;;;;;;;14.27;9.45;;;13.60;99.90;;;;;;4589763;19;19922;-30
2023/04/10 06:30:29;;;;;;;22.17;11.32;;;13.60;99.90;;;;;;4591993;19;20093;-31
2023/04/10 06:32:01;;;;;;;;;;;13.60;99.90;;;;;;4593318;19;20015;-31
2023/04/10 06:33:34;;;;;;;18.50;11.63;;;13.60;99.90;;;;;;4592395;19;19942;-31
2023/04/10 06:35:07;;;;;;;14.53;10.20;;;13.60;99.90;;;;;;4592175;19;20017;-31
2023/04/10 06:36:39;;;;;;;14.67;9.43;;;13.60;99.90;;;;;;4591654;19;20011;-30
2023/04/10 06:38:12;;;;;;;13.67;9.40;;;13.60;99.90;;;;;;4590485;19;20014;-30
2023/04/10 06:39:44;;;;;;;13.93;9.27;;;13.50;99.90;;;;;;4590619;19;20025;-30
2023/04/10 06:41:15;;;;;;;12.27;8.45;;;13.50;99.90;;;;;;4590690;19;20010;-31
2023/04/10 06:42:47;;;;;;;12.73;9.15;;;13.50;99.90;;;;;;4590563;19;20015;-30
2023/04/10 06:44:18;;;;;;;13.50;9.65;;;13.40;99.90;;;;;;4593549;19;20014;-30
2023/04/10 06:45:49;;;;;;;13.85;9.20;;;13.40;99.90;;;;;;4592590;19;20011;-30
2023/04/10 06:47:21;;;;;;;12.60;7.90;;;13.40;99.90;;;;;;4591216;19;20019;-30
2023/04/10 06:48:53;;;;;;;;;;;13.40;99.90;;;;;;4591480;19;20095;-31
2023/04/10 06:50:24;;;;;;;12.05;8.80;;;13.40;99.90;;;;;;4591700;19;19914;-31
2023/04/10 06:51:59;;;;;;;12.77;8.53;;;13.40;99.90;;;;;;4589772;19;20015;-30
2023/04/10 06:53:30;;;;;;;14.23;9.77;;;13.40;99.90;;;;;;4590466;19;20419;-31
2023/04/10 06:55:04;;;;;;;12.77;9.70;;;13.40;99.90;;;;;;4590899;19;20074;-30
2023/04/10 06:56:36;;;;;;;12.40;9.77;;;13.40;99.90;;;;;;4592079;19;20413;-31
2023/04/10 06:58:08;;;;;;;13.70;9.95;;;13.30;99.90;;;;;;4591650;19;20489;-30
2023/04/10 06:59:41;;;;;;;20.67;18.50;;;13.30;99.90;;;;;;4591759;19;20018;-31
2023/04/10 07:01:16;;;;;;;21.70;17.40;;;13.20;99.90;;;;;;4591673;19;20444;-30
2023/04/10 07:02:47;;;;;;;19.00;13.27;;;13.20;99.90;;;;;;4590889;19;20448;-31
2023/04/10 07:04:20;;;;;;;22.53;14.93;;;13.30;99.90;;;;;;4590301;19;20022;-31
2023/04/10 07:05:52;;;;;;;13.33;10.43;;;13.20;99.90;;;;;;4589959;19;20015;-30
2023/04/10 07:07:24;;;;;;;15.57;12.73;;;13.20;99.90;;;;;;4588847;19;20433;-30
2023/04/10 07:08:55;;;;;;;14.10;10.03;;;13.20;99.90;;;;;;4587774;19;20023;-30
2023/04/10 07:10:27;;;;;;;17.38;12.55;;;13.20;99.90;;;;;;4592120;19;20556;-30
2023/04/10 07:11:59;;;;;;;13.63;10.13;;;13.20;99.90;;;;;;4592088;19;20043;-31
2023/04/10 07:13:31;;;;;;;16.07;10.27;;;13.30;99.90;;;;;;4590595;19;20353;-30
2023/04/10 07:15:02;;;;;;;12.65;9.48;;;13.40;99.90;;;;;;4588808;19;20464;-30
2023/04/10 07:16:33;;;;;;;13.27;8.57;;;13.40;99.90;;;;;;4590382;19;20017;-30
2023/04/10 07:18:05;;;;;;;13.40;9.65;;;13.40;99.90;;;;;;4589259;19;20022;-30
2023/04/10 07:19:37;;;;;;;15.18;9.65;;;13.50;99.90;;;;;;4590356;19;20014;-30
2023/04/10 07:21:12;;;;;;;;;;;13.50;99.90;;;;;;4591401;19;20027;-30
2023/04/10 07:22:43;;;;;;;13.80;8.87;;;13.50;99.90;;;;;;4589690;19;19911;-31
2023/04/10 07:24:16;;;;;;;12.27;9.33;;;13.50;99.90;;;;;;4589669;19;21061;-31
2023/04/10 07:25:47;;;;;;;14.60;9.13;;;13.50;99.90;;;;;;4592534;19;20021;-30
2023/04/10 07:27:22;;;;;;;13.03;9.67;;;13.40;99.90;;;;;;4592000;19;20413;-30
2023/04/10 07:28:53;;;;;;;16.60;10.73;;;13.40;99.90;;;;;;4590487;19;20022;-30
2023/04/10 07:30:25;;;;;;;15.47;10.33;;;13.40;99.90;;;;;;4591392;19;20829;-30
2023/04/10 07:31:57;;;;;;;14.02;10.82;;;13.50;99.90;;;;;;4589698;19;20010;-30
2023/04/10 07:33:28;;;;;;;15.02;10.20;;;13.40;99.90;;;;;;4591174;19;20018;-31
2023/04/10 07:35:00;;;;;;;15.00;11.50;;;13.50;99.90;;;;;;4592251;19;20768;-30
2023/04/10 07:36:31;;;;;;;13.03;9.57;;;13.40;99.90;;;;;;4589526;19;20029;-30
2023/04/10 07:38:03;;;;;;;14.88;9.80;;;13.40;99.90;;;;;;4591839;19;20115;-31
2023/04/10 07:39:35;;;;;;;17.13;11.27;;;13.50;99.90;;;;;;4590830;19;20483;-30
2023/04/10 07:41:08;;;;;;;14.50;9.37;;;13.40;99.90;;;;;;4590422;19;20341;-30
2023/04/10 07:42:43;;;;;;;13.97;9.63;;;13.40;99.90;;;;;;4591194;19;20014;-31
2023/04/10 07:44:16;;;;;;;14.77;10.27;;;13.50;99.90;;;;;;4589497;19;21072;-31
2023/04/10 07:45:48;;;;;;;13.03;8.57;;;13.50;99.90;;;;;;4590876;19;20018;-31
2023/04/10 07:47:19;;;;;;;15.18;9.85;;;13.60;99.90;;;;;;4589295;19;20028;-30
2023/04/10 07:48:50;;;;;;;12.88;8.90;;;13.60;99.90;;;;;;4589789;19;20464;-30
2023/04/10 07:50:22;;;;;;;15.70;9.40;;;13.60;99.90;;;;;;4590582;19;20074;-31
2023/04/10 07:51:54;;;;;;;13.07;8.90;;;13.70;99.90;;;;;;4591749;19;20050;-30
2023/04/10 07:53:26;;;;;;;12.73;8.95;;;13.70;99.90;;;;;;4589715;19;20014;-31
2023/04/10 07:55:00;;;;;;;12.77;9.10;;;13.70;99.90;;;;;;4589786;19;20506;-31
2023/04/10 07:56:31;;;;;;;13.20;8.97;;;13.70;99.90;;;;;;4591171;19;20007;-31
2023/04/10 07:58:03;;;;;;;12.47;8.97;;;13.70;99.90;;;;;;4589919;19;20035;-31
2023/04/10 07:59:35;;;;;;;13.88;9.77;;;13.60;99.90;;;;;;4590471;19;20445;-30
2023/04/10 08:01:07;;;;;;;13.88;10.10;;;13.60;99.90;;;;;;4590204;19;20498;-30
2023/04/10 08:02:40;;;;;;;14.27;9.43;;;13.60;99.90;;;;;;4590274;19;20026;-31
2023/04/10 08:04:23;;;;;;;13.83;9.90;;;13.70;99.90;;;;;;4590131;19;20066;-31
2023/04/10 08:06:02;;;;;;;12.73;9.50;;;13.70;99.90;;;;;;4589963;19;20507;-31
2023/04/10 08:07:35;;;;;;;17.70;10.60;;;13.70;99.90;;;;;;4590481;19;20011;-31
2023/04/10 08:09:06;;;;;;;11.90;8.50;;;13.70;99.90;;;;;;4589462;19;20015;-30
2023/04/10 08:10:38;;;;;;;15.02;10.20;;;13.80;99.90;;;;;;4590591;19;20025;-30
2023/04/10 08:12:09;;;;;;;14.35;9.48;;;13.80;99.90;;;;;;4590274;19;20011;-30
2023/04/10 08:13:41;;;;;;;14.50;10.07;;;13.80;99.90;;;;;;4590469;19;20007;-31
2023/04/10 08:15:13;;;;;;;16.33;11.38;;;13.90;99.90;;;;;;4591140;19;20013;-29
2023/04/10 08:16:44;;;;;;;16.70;12.30;;;14.00;99.90;;;;;;4590026;19;20050;-31
2023/04/10 08:18:16;;;;;;;17.75;11.13;;;14.00;99.90;;;;;;4589000;19;20021;-30
2023/04/10 08:19:47;;;;;;;15.45;11.77;;;14.00;99.90;;;;;;4588841;19;20038;-31
2023/04/10 08:21:19;;;;;;;14.25;10.27;;;14.10;99.90;;;;;;4591074;19;20014;-30
2023/04/10 08:22:52;;;;;;;12.87;10.33;;;14.20;99.90;;;;;;4589388;19;20018;-30
2023/04/10 08:24:24;;;;;;;12.50;9.40;;;14.20;99.90;;;;;;4590861;19;20094;-29
2023/04/10 08:25:57;;;;;;;11.87;8.80;;;14.20;99.90;;;;;;4590503;19;20355;-30
2023/04/10 08:27:30;;;;;;;14.57;9.03;;;14.20;99.90;;;;;;4590740;19;20022;-30
2023/04/10 08:29:30;;;;;;;;;;;14.20;99.90;;;;;;4589894;19;20040;-31
2023/04/10 08:31:20;;;;;;;12.33;10.37;;;14.30;99.90;;;;;;4588336;19;20288;-30
2023/04/10 08:32:53;;;;;;;15.00;9.47;;;14.30;99.90;;;;;;4588198;19;20006;-31
2023/04/10 08:34:25;;;;;;;12.17;8.80;;;14.40;99.90;;;;;;4588178;19;20007;-31
2023/04/10 08:35:56;;;;;;;17.75;9.38;;;14.30;99.90;;;;;;4587678;19;20007;-30
2023/04/10 08:37:28;;;;;;;13.82;9.90;;;14.30;99.90;;;;;;4588027;19;20018;-31
2023/04/10 08:38:59;;;;;;;12.32;8.65;;;14.40;99.90;;;;;;4588344;19;20014;-30
2023/04/10 08:40:31;;;;;;;;;;;14.40;99.90;;;;;;4589385;19;20105;-30
2023/04/10 08:42:02;;;;;;;14.32;8.65;;;14.40;99.90;;;;;;4587813;19;19923;-31
2023/04/10 08:43:34;;;;;;;11.23;8.48;;;14.40;99.90;;;;;;4587605;19;20014;-30
2023/04/10 08:45:08;;;;;;;11.97;7.97;;;14.40;99.90;;;;;;4588128;19;20007;-31
2023/04/10 08:46:42;;;;;;;14.93;11.10;;;14.50;99.90;;;;;;4587502;19;20014;-30
2023/04/10 08:48:15;;;;;;;11.73;9.33;;;14.50;99.90;;;;;;4592002;19;20074;-31
2023/04/10 08:49:56;;;;;;;15.05;10.55;;;14.50;99.90;;;;;;4596883;19;20473;-31
2023/04/10 08:51:50;;;;;;;13.52;9.15;;;14.50;99.90;;;;;;4596758;19;20002;-31
2023/04/10 08:53:21;;;;;;;12.33;8.80;;;14.50;99.90;;;;;;4596837;19;20015;-31
2023/04/10 08:54:53;;;;;;;;;;;14.50;99.90;;;;;;4597316;19;20015;-30
2023/04/10 08:56:26;;;;;;;13.13;9.17;;;14.50;99.90;;;;;;4596305;19;19918;-31
2023/04/10 08:57:57;;;;;;;13.90;8.70;;;14.50;99.90;;;;;;4596130;19;20052;-30
2023/04/10 08:59:29;;;;;;;12.27;9.38;;;14.40;99.90;;;;;;4596735;19;20015;-31
2023/04/10 09:01:04;;;;;;;12.83;8.80;;;14.40;99.90;;;;;;4596026;19;20034;-30
2023/04/10 09:02:38;;;;;;;11.50;8.77;;;14.40;99.90;;;;;;4595947;19;20010;-31
2023/04/10 09:04:13;;;;;;;13.47;9.20;;;14.40;99.90;;;;;;4595957;19;20056;-30
2023/04/10 09:05:45;;;;;;;11.27;8.60;;;14.40;99.90;;;;;;4596151;19;20019;-31
2023/04/10 09:07:17;;;;;;;9.77;7.77;;;14.50;99.90;;;;;;4595850;19;20050;-31
2023/04/10 09:08:49;;;;;;;13.30;9.30;;;14.50;99.90;;;;;;4594851;19;20386;-31
2023/04/10 09:10:20;;;;;;;13.02;9.52;;;14.60;99.90;;;;;;4596377;19;20039;-31
2023/04/10 09:11:55;;;;;;;12.30;8.33;;;14.60;99.90;;;;;;4596484;19;20006;-30
2023/04/10 09:13:45;;;;;;;11.35;8.38;;;14.60;99.90;;;;;;4595995;19;20014;-31
2023/04/10 09:15:17;;;;;;;11.70;8.68;;;14.60;99.90;;;;;;4595821;19;20018;-31
2023/04/10 09:16:50;;;;;;;12.07;8.10;;;14.60;99.90;;;;;;4595861;19;20078;-31
2023/04/10 09:18:43;;;;;;;10.87;8.47;;;14.70;99.90;;;;;;4595880;19;20003;-31
2023/04/10 09:20:22;;;;;;;20.23;18.23;;;14.70;99.90;;;;;;4596704;19;20006;-31
2023/04/10 09:21:56;;;;;;;15.43;13.82;;;14.70;99.90;;;;;;4596039;19;20016;-31
2023/04/10 09:23:32;;;;;;;11.00;9.27;;;14.70;99.90;;;;;;4596179;19;20054;-30
2023/04/10 09:25:04;;;;;;;11.73;8.80;;;14.70;99.90;;;;;;4596686;19;20025;-30
2023/04/10 09:26:37;;;;;;;12.00;8.43;;;14.60;99.90;;;;;;4596638;19;20015;-31
2023/04/10 09:28:09;;;;;;;10.55;8.20;;;14.60;99.90;;;;;;4595143;19;20031;-31
2023/04/10 09:29:42;;;;;;;10.27;7.67;;;14.60;99.90;;;;;;4596392;19;20011;-31
2023/04/10 09:31:33;;;;;;;10.43;7.80;;;14.60;99.90;;;;;;4596327;19;20008;-30
2023/04/10 09:33:19;;;;;;;10.43;7.90;;;14.60;99.90;;;;;;4596456;19;19999;-31
2023/04/10 09:34:52;;;;;;;9.50;7.33;;;14.70;99.90;;;;;;4595983;19;20361;-31
2023/04/10 09:36:23;;;;;;;11.27;8.23;;;14.60;99.90;;;;;;4597595;19;20030;-31
2023/04/10 09:37:56;;;;;;;10.13;7.53;;;14.60;99.90;;;;;;4600182;19;20476;-31
2023/04/10 09:39:33;;;;;;;10.70;7.60;;;14.60;99.90;;;;;;4596775;19;20058;-30
2023/04/10 09:41:07;;;;;;;11.27;6.93;;;14.60;99.90;;;;;;4597808;19;20010;-30
2023/04/10 09:42:39;;;;;;;10.00;7.27;;;14.70;99.90;;;;;;4597964;19;20019;-30
2023/04/10 09:44:11;;;;;;;10.23;7.20;;;14.80;99.90;;;;;;4597578;19;20056;-31
2023/04/10 09:45:48;;;;;;;8.93;7.05;;;14.80;99.90;;;;;;4597019;19;20007;-31
2023/04/10 09:47:20;;;;;;;9.93;6.83;;;14.90;99.90;;;;;;4596939;19;20006;-30
2023/04/10 09:49:00;;;;;;;10.20;7.15;;;14.90;99.90;;;;;;4594076;19;20025;-30
2023/04/10 09:50:39;;;;;;;9.87;8.03;;;14.90;99.90;;;;;;4595809;19;20476;-31
2023/04/10 09:52:38;;;;;;;13.95;10.25;;;14.90;99.90;;;;;;4594393;19;20007;-30
2023/04/10 09:54:11;;;;;;;12.53;7.90;;;15.00;99.90;;;;;;4597158;19;20014;-31
2023/04/10 09:55:44;;;;;;;12.38;8.10;;;15.00;99.90;;;;;;4596053;19;20480;-30
2023/04/10 09:57:20;;;;;;;9.00;7.47;;;15.10;99.90;;;;;;4594795;19;20412;-31
2023/04/10 09:59:03;;;;;;;9.15;7.28;;;15.10;99.90;;;;;;4594939;19;20025;-30
2023/04/10 10:00:41;;;;;;;9.07;7.32;;;15.20;99.90;;;;;;4589089;19;20034;-30
2023/04/10 10:02:13;;;;;;;10.10;8.13;;;15.20;99.90;;;;;;4590311;19;20027;-29
2023/04/10 10:03:44;;;;;;;10.73;8.57;;;15.30;99.90;;;;;;4589935;19;20011;-31
2023/04/10 10:05:16;;;;;;;13.43;8.43;;;15.30;99.90;;;;;;4590040;19;20467;-31
2023/04/10 10:06:48;;;;;;;10.05;7.97;;;15.30;99.90;;;;;;4592973;19;20095;-31
2023/04/10 10:08:20;;;;;;;10.63;7.95;;;15.20;99.90;;;;;;4590845;19;20014;-31
2023/04/10 10:10:01;;;;;;;9.70;7.50;;;15.20;99.90;;;;;;4591539;19;20017;-31
2023/04/10 10:11:37;;;;;;;9.93;7.82;;;15.20;99.90;;;;;;4591071;19;20038;-30
2023/04/10 10:13:10;;;;;;;9.13;6.77;;;15.20;99.90;;;;;;4590455;19;20025;-31
2023/04/10 10:15:01;;;;;;;8.95;7.07;;;15.20;99.90;;;;;;4591755;19;20013;-30
2023/04/10 10:16:54;;;;;;;8.75;6.80;;;15.30;99.90;;;;;;4591450;19;20014;-31
2023/04/10 10:18:44;;;;;;;8.75;6.75;;;15.30;99.90;;;;;;4591747;19;20018;-30
2023/04/10 10:20:16;;;;;;;9.10;7.13;;;15.40;99.90;;;;;;4592783;19;20086;-31
2023/04/10 10:21:48;;;;;;;11.43;7.43;;;15.30;99.90;;;;;;4591194;19;20436;-31
2023/04/10 10:23:20;;;;;;;11.30;7.97;;;15.30;99.90;;;;;;4591071;19;20026;-30
2023/04/10 10:24:55;;;;;;;9.10;7.60;;;15.30;99.90;;;;;;4591680;19;20082;-31
2023/04/10 10:26:28;;;;;;;12.70;9.23;;;15.40;99.90;;;;;;4590547;19;20024;-31
2023/04/10 10:28:02;;;;;;;11.38;9.25;;;15.30;99.90;;;;;;4589887;19;20006;-31
2023/04/10 10:29:34;;;;;;;11.03;9.70;;;15.30;99.90;;;;;;4589223;19;20093;-30
2023/04/10 10:31:06;;;;;;;9.47;8.47;;;15.40;99.90;;;;;;4589936;19;20010;-31
2023/04/10 10:32:38;;;;;;;9.00;7.95;;;15.30;99.90;;;;;;4590242;19;20018;-31
2023/04/10 10:34:09;;;;;;;10.57;7.38;;;15.30;99.90;;;;;;4589748;19;20011;-31
2023/04/10 10:35:43;;;;;;;8.80;7.15;;;15.30;99.90;;;;;;4594022;19;20350;-31
2023/04/10 10:37:15;;;;;;;;;;;15.40;99.90;;;;;;4592639;19;20007;-30
2023/04/10 10:39:12;;;;;;;9.80;6.77;;;15.30;99.90;;;;;;4591378;19;20329;-30
2023/04/10 10:41:16;;;;;;;9.10;7.00;;;15.30;99.90;;;;;;4590962;19;20014;-31
2023/04/10 10:43:32;;;;;;;8.43;6.60;;;15.30;99.90;;;;;;4592245;19;20090;-30
2023/04/10 10:45:24;;;;;;;9.50;7.75;;;15.30;99.90;;;;;;4589751;19;20474;-31
2023/04/10 10:47:19;;;;;;;8.75;7.50;;;15.30;99.90;;;;;;4590322;19;20015;-30
2023/04/10 10:48:58;;;;;;;8.97;7.00;;;15.40;99.90;;;;;;4588960;19;20112;-30
2023/04/10 10:50:52;;;;;;;8.77;6.55;;;15.30;99.90;;;;;;4589913;19;20017;-31
2023/04/10 10:52:40;;;;;;;9.90;7.93;;;15.30;99.90;;;;;;4590158;19;20006;-30
2023/04/10 10:54:32;;;;;;;8.63;6.93;;;15.20;99.90;;;;;;4590105;19;20460;-30
2023/04/10 10:56:21;;;;;;;8.00;6.77;;;15.20;99.90;;;;;;4589810;19;20010;-31
2023/04/10 10:58:00;;;;;;;8.97;7.23;;;15.20;99.90;;;;;;4589927;19;20014;-30
2023/04/10 10:59:43;;;;;;;8.30;6.10;;;15.30;99.90;;;;;;4590022;19;20015;-30
2023/04/10 11:01:16;;;;;;;7.30;5.80;;;15.50;99.90;;;;;;4590080;19;20014;-30
2023/04/10 11:03:06;;;;;;;;;;;15.80;99.90;;;;;;4591319;19;20018;-30
2023/04/10 11:04:45;;;;;;;9.15;7.35;;;15.90;99.90;;;;;;4590004;19;19911;-30
2023/04/10 11:06:21;;;;;;;9.15;7.25;;;15.80;99.90;;;;;;4589618;19;20042;-30
2023/04/10 11:08:10;;;;;;;7.13;6.28;;;15.70;99.90;;;;;;4589036;19;20015;-31
2023/04/10 11:09:56;;;;;;;10.27;6.97;;;15.70;99.90;;;;;;4589965;19;20006;-31
2023/04/10 11:11:29;;;;;;;7.60;5.75;;;15.60;99.90;;;;;;4587080;19;20007;-30
2023/04/10 11:13:16;;;;;;;8.75;7.03;;;15.60;99.90;;;;;;4590078;19;20014;-31
2023/04/10 11:15:03;;;;;;;10.35;6.40;;;15.50;99.90;;;;;;4589626;19;20025;-31
2023/04/10 11:16:35;;;;;;;7.77;6.13;;;15.40;99.90;;;;;;4589290;19;20021;-31
2023/04/10 11:18:06;;;;;;;9.63;6.57;;;15.40;99.90;;;;;;4589695;19;20018;-31
2023/04/10 11:19:56;;;;;;;6.95;5.78;;;15.30;99.90;;;;;;4589293;19;20037;-31
2023/04/10 11:21:30;;;;;;;10.05;7.53;;;15.30;99.90;;;;;;4590224;19;20003;-30
2023/04/10 11:23:10;;;;;;;9.15;7.47;;;15.30;99.90;;;;;;4590625;19;20153;-31
2023/04/10 11:24:56;;;;;;;10.10;7.63;;;15.30;99.90;;;;;;4591365;19;20014;-30
2023/04/10 11:26:40;;;;;;;9.68;6.40;;;15.20;99.90;;;;;;4591776;19;20017;-31
2023/04/10 11:28:49;;;;;;;20.48;11.98;;;15.20;99.90;;;;;;4591383;19;20010;-31
2023/04/10 11:30:27;;;;;;;25.83;13.03;;;15.30;99.90;;;;;;4591722;19;20014;-30
2023/04/10 11:32:00;;;;;;;11.97;8.63;;;15.30;99.90;;;;;;4592083;19;20019;-31
2023/04/10 11:33:32;;;;;;;10.10;7.45;;;15.30;99.90;;;;;;4592189;19;20456;-31
2023/04/10 11:35:03;;;;;;;19.90;12.43;;;15.30;99.90;;;;;;4590316;19;20014;-31
2023/04/10 11:36:41;;;;;;;36.08;22.10;;;15.30;99.90;;;;;;4591340;19;20019;-31
2023/04/10 11:38:15;;;;;;;32.63;21.33;;;15.30;99.90;;;;;;4591709;19;20024;-31
2023/04/10 11:39:48;;;;;;;17.97;14.20;;;15.30;99.90;;;;;;4591904;19;20010;-30
2023/04/10 11:41:19;;;;;;;8.98;7.97;;;15.20;99.90;;;;;;4591279;19;20007;-31
2023/04/10 11:42:50;;;;;;;;;;;15.10;99.90;;;;;;4592146;19;20480;-30
2023/04/10 11:44:25;;;;;;;9.50;7.23;;;15.00;99.90;;;;;;4591288;19;19915;-31
2023/04/10 11:46:00;;;;;;;8.63;6.93;;;15.00;99.90;;;;;;4591531;19;20011;-31
2023/04/10 11:47:32;;;;;;;7.73;6.53;;;15.00;99.90;;;;;;4589855;19;20011;-30
2023/04/10 11:49:05;;;;;;;9.93;6.47;;;15.10;99.90;;;;;;4589457;19;20017;-30
2023/04/10 11:50:36;;;;;;;7.70;5.83;;;15.10;99.90;;;;;;4590888;19;19999;-30
2023/04/10 11:52:10;;;;;;;7.83;6.73;;;15.10;99.90;;;;;;4590846;19;20014;-31
2023/04/10 11:53:42;;;;;;;8.13;6.63;;;15.10;99.90;;;;;;4591299;19;20007;-30
2023/04/10 11:55:15;;;;;;;;;;;15.10;99.90;;;;;;4590656;19;20014;-30
2023/04/10 11:56:56;;;;;;;8.27;7.07;;;15.00;99.90;;;;;;4590598;19;19942;-31
2023/04/10 11:58:29;;;;;;;8.27;6.75;;;15.00;99.90;;;;;;4591100;19;20019;-31
2023/04/10 12:00:00;;;;;;;7.53;6.73;;;15.00;99.90;;;;;;4590671;19;20010;-30
2023/04/10 12:01:32;;;;;;;9.02;6.40;;;15.00;99.90;;;;;;4590827;19;20038;-31
2023/04/10 12:03:05;;;;;;;8.13;5.93;;;15.00;99.90;;;;;;4591072;19;20010;-31
2023/04/10 12:04:38;;;;;;;7.70;6.13;;;15.00;99.90;;;;;;4590694;19;20054;-30
2023/04/10 12:06:11;;;;;;;8.60;6.97;;;15.00;99.90;;;;;;4589507;19;20015;-30
2023/04/10 12:07:43;;;;;;;8.93;5.83;;;15.00;99.90;;;;;;4589283;19;20013;-31
2023/04/10 12:09:20;;;;;;;7.53;6.03;;;15.00;99.90;;;;;;4589160;19;20026;-30
2023/04/10 12:10:55;;;;;;;7.73;6.40;;;15.10;99.90;;;;;;4589414;19;20066;-30
2023/04/10 12:12:35;;;;;;;6.77;5.87;;;15.00;99.90;;;;;;4589918;19;20010;-30
2023/04/10 12:14:07;;;;;;;8.23;5.90;;;15.00;99.90;;;;;;4590638;19;20353;-30
2023/04/10 12:15:39;;;;;;;9.27;5.82;;;15.00;99.90;;;;;;4591212;19;20101;-31
2023/04/10 12:17:11;;;;;;;10.40;6.20;;;15.00;99.90;;;;;;4590915;19;20003;-30
2023/04/10 12:18:46;;;;;;;7.23;5.73;;;14.90;99.90;;;;;;4590313;19;20022;-31
2023/04/10 12:20:19;;;;;;;8.60;5.83;;;14.90;99.90;;;;;;4589156;19;20026;-31
2023/04/10 12:21:52;;;;;;;7.83;5.97;;;14.90;99.90;;;;;;4590181;19;20019;-31
2023/04/10 12:23:27;;;;;;;7.73;6.30;;;14.90;99.90;;;;;;4587976;19;20006;-31
2023/04/10 12:25:00;;;;;;;6.40;5.70;;;14.90;99.90;;;;;;4589201;19;20010;-30
2023/04/10 12:26:31;;;;;;;9.47;6.20;;;14.90;99.90;;;;;;4590016;19;20010;-31
2023/04/10 12:28:02;;;;;;;9.77;6.25;;;14.90;99.90;;;;;;4590559;19;20014;-30
2023/04/10 12:29:34;;;;;;;10.13;6.45;;;14.90;99.90;;;;;;4589664;19;20405;-31
2023/04/10 12:31:06;;;;;;;8.20;6.17;;;14.90;99.90;;;;;;4590288;19;20017;-31
2023/04/10 12:32:38;;;;;;;9.57;7.23;;;14.90;99.90;;;;;;4590412;19;20337;-30
2023/04/10 12:34:10;;;;;;;9.25;6.05;;;14.90;99.90;;;;;;4591113;19;20002;-31
2023/04/10 12:35:42;;;;;;;7.67;6.00;;;14.90;99.90;;;;;;4588683;19;20025;-30
2023/04/10 12:37:13;;;;;;;9.52;5.93;;;14.90;99.90;;;;;;4590109;19;20015;-31
2023/04/10 12:38:46;;;;;;;7.83;5.80;;;14.90;99.90;;;;;;4590203;19;20003;-31
2023/04/10 12:40:19;;;;;;;6.03;5.07;;;14.90;99.90;;;;;;4587772;19;20003;-31
2023/04/10 12:41:51;;;;;;;7.93;4.97;;;14.90;99.90;;;;;;4589407;19;20010;-31
2023/04/10 12:43:36;;;;;;;7.00;5.45;;;15.00;99.90;;;;;;4590125;19;20025;-31
2023/04/10 12:45:11;;;;;;;7.63;6.30;;;14.90;99.90;;;;;;4590447;19;20006;-31
2023/04/10 12:46:44;;;;;;;8.20;5.57;;;14.90;99.90;;;;;;4590111;19;20460;-30
2023/04/10 12:48:25;;;;;;;6.50;4.87;;;14.90;99.90;;;;;;4589447;19;20479;-31
2023/04/10 12:50:10;;;;;;;7.00;5.72;;;14.90;99.90;;;;;;4589783;19;20472;-30
2023/04/10 12:51:45;;;;;;;8.07;5.00;;;15.00;99.90;;;;;;4590155;19;20007;-30
2023/04/10 12:53:16;;;;;;;6.95;5.00;;;15.10;99.90;;;;;;4589917;19;20021;-30
2023/04/10 12:54:49;;;;;;;8.33;5.93;;;15.10;99.90;;;;;;4588456;19;20353;-30
2023/04/10 12:56:20;;;;;;;6.85;5.30;;;15.10;99.90;;;;;;4588739;19;20082;-30
2023/04/10 12:57:53;;;;;;;;;;;15.10;99.90;;;;;;4590545;19;20472;-31
2023/04/10 12:59:25;;;;;;;6.67;5.03;;;15.10;99.90;;;;;;4590212;19;19914;-31
2023/04/10 13:01:08;;;;;;;6.23;4.93;;;15.10;99.90;;;;;;4589124;19;20002;-30
2023/04/10 13:02:39;;;;;;;8.70;4.90;;;15.20;99.90;;;;;;4589634;19;20090;-31
2023/04/10 13:04:11;;;;;;;8.15;5.45;;;15.10;99.90;;;;;;4589880;19;20508;-31
2023/04/10 13:05:43;;;;;;;7.40;5.33;;;15.00;99.90;;;;;;4589771;19;20018;-31
2023/04/10 13:07:15;;;;;;;;;;;15.00;99.90;;;;;;4590813;19;20003;-31
2023/04/10 13:08:46;;;;;;;5.80;4.40;;;15.00;99.90;;;;;;4588541;19;20242;-31
2023/04/10 13:10:17;;;;;;;6.97;4.50;;;15.10;99.90;;;;;;4589761;19;20014;-31
2023/04/10 13:11:50;;;;;;;5.93;4.45;;;15.10;99.90;;;;;;4589782;19;20053;-31
2023/04/10 13:13:21;;;;;;;;;;;15.20;99.90;;;;;;4589353;19;20060;-31
2023/04/10 13:14:53;;;;;;;5.70;3.90;;;15.30;99.90;;;;;;4589233;19;19914;-31
2023/04/10 13:16:26;;;;;;;5.22;4.40;;;15.40;99.90;;;;;;4589735;19;20007;-31
2023/04/10 13:17:57;;;;;;;6.38;4.40;;;15.50;99.90;;;;;;4590153;19;20007;-30
2023/04/10 13:19:29;;;;;;;5.28;3.60;;;15.60;99.90;;;;;;4589243;19;20034;-30
2023/04/10 13:21:02;;;;;;;7.95;4.65;;;15.70;99.90;;;;;;4589531;19;20015;-31
2023/04/10 13:22:33;;;;;;;5.35;4.00;;;15.80;99.90;;;;;;4590126;19;20006;-31
2023/04/10 13:24:05;;;;;;;8.60;4.43;;;15.90;99.90;;;;;;4589939;19;20015;-31
2023/04/10 13:25:38;;;;;;;4.75;4.03;;;16.00;99.90;;;;;;4589379;19;20019;-31
2023/04/10 13:27:10;;;;;;;5.88;4.13;;;16.00;99.90;;;;;;4589729;19;20353;-31
2023/04/10 13:28:41;;;;;;;5.07;3.80;;;16.10;99.90;;;;;;4589046;19;20013;-31
2023/04/10 13:30:12;;;;;;;5.72;3.70;;;16.20;99.90;;;;;;4588765;19;20085;-31
2023/04/10 13:31:44;;;;;;;5.30;4.03;;;16.30;99.90;;;;;;4589363;19;20014;-31
2023/04/10 13:33:17;;;;;;;5.28;3.80;;;16.40;99.90;;;;;;4589584;19;20376;-30
2023/04/10 13:34:48;;;;;;;5.88;3.90;;;16.40;99.90;;;;;;4590459;19;20362;-30
2023/04/10 13:36:19;;;;;;;4.63;3.70;;;16.50;99.90;;;;;;4594288;19;20098;-31
2023/04/10 13:37:52;;;;;;;6.50;3.53;;;16.50;99.90;;;;;;4593816;19;20030;-31
2023/04/10 13:39:25;;;;;;;6.22;3.70;;;16.60;99.90;;;;;;4594204;19;20015;-30
2023/04/10 13:40:58;;;;;;;4.68;3.80;;;16.70;99.90;;;;;;4593014;19;20085;-30
2023/04/10 13:42:29;;;;;;;4.60;3.10;;;16.60;99.90;;;;;;4593288;19;20384;-30
2023/04/10 13:44:01;;;;;;;;;;;16.60;99.90;;;;;;4594084;19;20472;-30
2023/04/10 13:45:33;;;;;;;5.65;3.50;;;16.50;99.90;;;;;;4591864;19;19923;-31
2023/04/10 13:47:06;;;;;;;6.78;4.45;;;16.40;99.90;;;;;;4592278;19;20009;-30
2023/04/10 13:48:40;;;;;;;6.15;5.40;;;16.40;99.90;;;;;;4589339;19;20058;-30
2023/04/10 13:50:12;;;;;;;6.95;4.53;;;16.30;99.90;;;;;;4591283;19;20078;-31
2023/04/10 13:51:44;;;;;;;6.47;4.72;;;16.10;99.90;;;;;;4590234;19;20007;-31
2023/04/10 13:53:15;;;;;;;8.30;6.43;;;16.20;99.90;;;;;;4593870;19;20011;-31
2023/04/10 13:54:47;;;;;;;8.10;5.13;;;16.20;99.90;;;;;;4593637;19;20414;-30
2023/04/10 13:56:18;;;;;;;7.45;5.13;;;16.20;99.90;;;;;;4593285;19;20010;-31
2023/04/10 13:57:49;;;;;;;;;;;16.10;99.90;;;;;;4593617;19;20102;-31
2023/04/10 13:59:21;;;;;;;10.93;9.02;;;16.10;99.90;;;;;;4591328;19;19921;-31
2023/04/10 14:00:52;;;;;;;;;;;16.00;99.90;;;;;;4592580;19;20118;-31
2023/04/10 14:02:24;;;;;;;7.70;5.28;;;16.00;99.90;;;;;;4591755;19;19919;-31
2023/04/10 14:03:56;;;;;;;7.05;5.30;;;16.00;99.90;;;;;;4591721;19;20091;-30
2023/04/10 14:05:28;;;;;;;8.30;6.10;;;16.00;99.90;;;;;;4590953;19;20435;-31
2023/04/10 14:07:00;;;;;;;;;;;16.00;99.90;;;;;;4594767;19;20038;-30
2023/04/10 14:08:32;;;;;;;;;;;16.00;99.90;;;;;;4592661;19;19942;-31
2023/04/10 14:10:05;;;;;;;13.88;9.05;;;16.00;99.90;;;;;;4593211;19;19918;-31
2023/04/10 14:11:37;;;;;;;9.32;6.55;;;16.00;99.90;;;;;;4591747;19;20133;-31
2023/04/10 14:13:10;;;;;;;10.15;8.38;;;16.00;99.90;;;;;;4592002;19;20002;-31
2023/04/10 14:14:43;;;;;;;7.40;6.22;;;16.00;99.90;;;;;;4592228;19;20462;-30
2023/04/10 14:16:15;;;;;;;8.30;5.35;;;16.00;99.90;;;;;;4591751;19;20010;-31
2023/04/10 14:17:46;;;;;;;8.27;4.60;;;16.00;99.90;;;;;;4591694;19;20464;-31
2023/04/10 14:19:18;;;;;;;6.63;5.13;;;16.00;99.90;;;;;;4591364;19;20009;-31